sensor_id;sensor_type;location;lat;lon;timestamp;pressure;altitude;pressure_sealevel;temperature;humidity
26699;BME280;14313;50.892;13.756;2022-08-07T00:01:11;98709.91;;;16.34;56.38
26699;BME280;14313;50.892;13.756;2022-08-07T00:03:36;98705.44;;;16.34;55.99
26699;BME280;14313;50.892;13.756;2022-08-07T00:06:02;98714.91;;;16.20;56.39
26699;BME280;14313;50.892;13.756;2022-08-07T00:08:28;98703.09;;;16.15;56.07
26699;BME280;14313;50.892;13.756;2022-08-07T00:10:53;98701.22;;;16.07;57.43
26699;BME280;14313;50.892;13.756;2022-08-07T00:13:20;98700.22;;;16.00;58.07
26699;BME280;14313;50.892;13.756;2022-08-07T00:15:46;98699.84;;;15.87;57.51
26699;BME280;14313;50.892;13.756;2022-08-07T00:18:13;98709.84;;;15.93;57.47
26699;BME280;14313;50.892;13.756;2022-08-07T00:20:39;98705.03;;;15.97;56.73
26699;BME280;14313;50.892;13.756;2022-08-07T00:23:04;98706.19;;;16.02;56.23
26699;BME280;14313;50.892;13.756;2022-08-07T00:25:33;98699.88;;;16.03;56.30
26699;BME280;14313;50.892;13.756;2022-08-07T00:27:58;98693.41;;;16.06;56.63
26699;BME280;14313;50.892;13.756;2022-08-07T00:30:24;98695.38;;;15.96;56.60
26699;BME280;14313;50.892;13.756;2022-08-07T00:32:49;98699.00;;;15.87;57.02
26699;BME280;14313;50.892;13.756;2022-08-07T00:35:17;98693.16;;;15.75;57.63
26699;BME280;14313;50.892;13.756;2022-08-07T00:37:42;98687.47;;;15.70;57.35
26699;BME280;14313;50.892;13.756;2022-08-07T00:40:08;98688.16;;;15.64;57.62
26699;BME280;14313;50.892;13.756;2022-08-07T00:42:33;98690.75;;;15.56;57.96
26699;BME280;14313;50.892;13.756;2022-08-07T00:44:58;98685.06;;;15.51;57.54
26699;BME280;14313;50.892;13.756;2022-08-07T00:47:24;98680.91;;;15.48;58.12
26699;BME280;14313;50.892;13.756;2022-08-07T00:49:49;98682.34;;;15.68;57.54
26699;BME280;14313;50.892;13.756;2022-08-07T00:52:15;98682.66;;;15.65;57.24
26699;BME280;14313;50.892;13.756;2022-08-07T00:54:40;98679.50;;;15.62;58.40
26699;BME280;14313;50.892;13.756;2022-08-07T00:57:05;98684.47;;;15.65;58.98
26699;BME280;14313;50.892;13.756;2022-08-07T00:59:31;98688.06;;;15.48;57.94
26699;BME280;14313;50.892;13.756;2022-08-07T01:01:57;98690.47;;;15.33;58.57
26699;BME280;14313;50.892;13.756;2022-08-07T01:04:22;98685.28;;;15.23;58.58
26699;BME280;14313;50.892;13.756;2022-08-07T01:06:48;98689.66;;;15.41;58.29
26699;BME280;14313;50.892;13.756;2022-08-07T01:09:13;98692.19;;;15.50;57.86
26699;BME280;14313;50.892;13.756;2022-08-07T01:11:39;98680.31;;;15.54;57.37
26699;BME280;14313;50.892;13.756;2022-08-07T01:14:04;98682.16;;;15.36;59.14
26699;BME280;14313;50.892;13.756;2022-08-07T01:16:31;98683.75;;;15.21;59.48
26699;BME280;14313;50.892;13.756;2022-08-07T01:18:58;98673.91;;;15.13;59.22
26699;BME280;14313;50.892;13.756;2022-08-07T01:21:23;98684.97;;;15.01;60.29
26699;BME280;14313;50.892;13.756;2022-08-07T01:23:53;98671.38;;;15.04;59.84
26699;BME280;14313;50.892;13.756;2022-08-07T01:26:20;98682.44;;;14.91;59.31
26699;BME280;14313;50.892;13.756;2022-08-07T01:28:49;98681.63;;;14.99;58.72
26699;BME280;14313;50.892;13.756;2022-08-07T01:31:20;98680.88;;;15.06;58.60
26699;BME280;14313;50.892;13.756;2022-08-07T01:33:53;98680.03;;;15.06;58.55
26699;BME280;14313;50.892;13.756;2022-08-07T01:36:18;98680.16;;;15.04;58.90
26699;BME280;14313;50.892;13.756;2022-08-07T01:38:45;98673.56;;;15.08;59.44
26699;BME280;14313;50.892;13.756;2022-08-07T01:41:22;98684.47;;;14.97;59.58
26699;BME280;14313;50.892;13.756;2022-08-07T01:43:49;98686.91;;;14.90;60.10
26699;BME280;14313;50.892;13.756;2022-08-07T01:46:17;98677.25;;;14.89;58.89
26699;BME280;14313;50.892;13.756;2022-08-07T01:48:45;98678.78;;;14.92;58.86
26699;BME280;14313;50.892;13.756;2022-08-07T01:51:17;98676.44;;;14.89;58.38
26699;BME280;14313;50.892;13.756;2022-08-07T01:53:50;98679.41;;;14.86;59.52
26699;BME280;14313;50.892;13.756;2022-08-07T01:56:30;98685.00;;;14.83;60.06
26699;BME280;14313;50.892;13.756;2022-08-07T01:59:04;98684.75;;;14.68;60.10
26699;BME280;14313;50.892;13.756;2022-08-07T02:01:33;98681.25;;;14.68;59.82
26699;BME280;14313;50.892;13.756;2022-08-07T02:04:15;98684.59;;;14.70;60.14
26699;BME280;14313;50.892;13.756;2022-08-07T02:06:46;98680.97;;;14.71;59.80
26699;BME280;14313;50.892;13.756;2022-08-07T02:09:16;98682.28;;;14.67;59.75
26699;BME280;14313;50.892;13.756;2022-08-07T02:11:44;98676.63;;;14.70;59.41
26699;BME280;14313;50.892;13.756;2022-08-07T02:14:13;98678.03;;;14.56;60.48
26699;BME280;14313;50.892;13.756;2022-08-07T02:16:39;98681.22;;;14.60;60.14
26699;BME280;14313;50.892;13.756;2022-08-07T02:19:09;98687.28;;;14.52;60.14
26699;BME280;14313;50.892;13.756;2022-08-07T02:21:37;98685.56;;;14.43;60.20
26699;BME280;14313;50.892;13.756;2022-08-07T02:24:04;98683.66;;;14.35;61.62
26699;BME280;14313;50.892;13.756;2022-08-07T02:26:31;98691.84;;;14.42;62.25
26699;BME280;14313;50.892;13.756;2022-08-07T02:28:57;98687.69;;;14.39;61.49
26699;BME280;14313;50.892;13.756;2022-08-07T02:31:24;98688.53;;;14.40;61.56
26699;BME280;14313;50.892;13.756;2022-08-07T02:33:51;98685.88;;;14.40;60.40
26699;BME280;14313;50.892;13.756;2022-08-07T02:36:20;98683.03;;;14.41;60.38
26699;BME280;14313;50.892;13.756;2022-08-07T02:38:46;98693.22;;;14.46;60.40
26699;BME280;14313;50.892;13.756;2022-08-07T02:41:12;98692.69;;;14.42;61.23
26699;BME280;14313;50.892;13.756;2022-08-07T02:43:38;98686.63;;;14.50;59.99
26699;BME280;14313;50.892;13.756;2022-08-07T02:46:06;98683.13;;;14.49;59.73
26699;BME280;14313;50.892;13.756;2022-08-07T02:48:34;98691.22;;;14.30;60.22
26699;BME280;14313;50.892;13.756;2022-08-07T02:51:07;98679.03;;;14.55;59.71
26699;BME280;14313;50.892;13.756;2022-08-07T02:53:35;98679.69;;;14.57;58.97
26699;BME280;14313;50.892;13.756;2022-08-07T02:56:03;98679.13;;;14.45;59.19
26699;BME280;14313;50.892;13.756;2022-08-07T02:58:30;98675.63;;;14.45;59.84
26699;BME280;14313;50.892;13.756;2022-08-07T03:00:57;98681.06;;;14.43;59.62
26699;BME280;14313;50.892;13.756;2022-08-07T03:03:25;98681.00;;;14.35;61.42
26699;BME280;14313;50.892;13.756;2022-08-07T03:05:53;98685.59;;;14.33;60.87
26699;BME280;14313;50.892;13.756;2022-08-07T03:08:20;98672.19;;;14.17;60.99
26699;BME280;14313;50.892;13.756;2022-08-07T03:10:49;98676.50;;;14.00;60.89
26699;BME280;14313;50.892;13.756;2022-08-07T03:13:23;98671.25;;;13.91;60.82
26699;BME280;14313;50.892;13.756;2022-08-07T03:15:51;98675.06;;;14.06;60.81
26699;BME280;14313;50.892;13.756;2022-08-07T03:18:18;98670.00;;;14.13;60.94
26699;BME280;14313;50.892;13.756;2022-08-07T03:20:45;98677.81;;;14.14;60.90
26699;BME280;14313;50.892;13.756;2022-08-07T03:23:11;98667.19;;;14.14;61.04
26699;BME280;14313;50.892;13.756;2022-08-07T03:25:40;98666.34;;;14.14;60.99
26699;BME280;14313;50.892;13.756;2022-08-07T03:28:09;98665.84;;;14.10;60.84
26699;BME280;14313;50.892;13.756;2022-08-07T03:30:36;98674.22;;;14.05;61.36
26699;BME280;14313;50.892;13.756;2022-08-07T03:33:03;98673.47;;;14.13;61.81
26699;BME280;14313;50.892;13.756;2022-08-07T03:35:31;98664.16;;;13.91;62.19
26699;BME280;14313;50.892;13.756;2022-08-07T03:38:01;98661.34;;;13.93;62.12
26699;BME280;14313;50.892;13.756;2022-08-07T03:40:29;98660.66;;;13.91;62.25
26699;BME280;14313;50.892;13.756;2022-08-07T03:42:56;98662.31;;;13.92;62.35
26699;BME280;14313;50.892;13.756;2022-08-07T03:45:24;98658.94;;;13.99;61.81
26699;BME280;14313;50.892;13.756;2022-08-07T03:47:52;98657.94;;;14.00;62.38
26699;BME280;14313;50.892;13.756;2022-08-07T03:50:20;98660.56;;;14.00;62.00
26699;BME280;14313;50.892;13.756;2022-08-07T03:52:47;98661.28;;;14.02;62.41
26699;BME280;14313;50.892;13.756;2022-08-07T03:55:13;98649.16;;;14.00;61.46
26699;BME280;14313;50.892;13.756;2022-08-07T03:57:42;98660.44;;;14.02;61.14
26699;BME280;14313;50.892;13.756;2022-08-07T04:00:10;98656.22;;;14.09;61.09
26699;BME280;14313;50.892;13.756;2022-08-07T04:02:42;98667.56;;;14.19;61.36
26699;BME280;14313;50.892;13.756;2022-08-07T04:05:10;98665.28;;;14.24;60.57
26699;BME280;14313;50.892;13.756;2022-08-07T04:07:43;98672.19;;;14.17;61.77
26699;BME280;14313;50.892;13.756;2022-08-07T04:10:09;98668.50;;;14.10;62.68
26699;BME280;14313;50.892;13.756;2022-08-07T04:12:35;98680.09;;;14.09;62.90
26699;BME280;14313;50.892;13.756;2022-08-07T04:15:01;98669.94;;;14.04;62.17
26699;BME280;14313;50.892;13.756;2022-08-07T04:17:31;98670.50;;;14.16;61.98
26699;BME280;14313;50.892;13.756;2022-08-07T04:19:57;98670.09;;;14.21;62.09
26699;BME280;14313;50.892;13.756;2022-08-07T04:22:24;98673.16;;;14.34;61.96
26699;BME280;14313;50.892;13.756;2022-08-07T04:24:51;98676.13;;;14.48;60.86
26699;BME280;14313;50.892;13.756;2022-08-07T04:27:17;98673.09;;;14.61;62.19
26699;BME280;14313;50.892;13.756;2022-08-07T04:29:42;98677.22;;;14.81;60.90
26699;BME280;14313;50.892;13.756;2022-08-07T04:32:09;98667.72;;;14.79;60.98
26699;BME280;14313;50.892;13.756;2022-08-07T04:34:36;98665.91;;;14.79;60.49
26699;BME280;14313;50.892;13.756;2022-08-07T04:37:01;98678.22;;;14.80;61.55
26699;BME280;14313;50.892;13.756;2022-08-07T04:39:27;98670.25;;;14.80;60.49
26699;BME280;14313;50.892;13.756;2022-08-07T04:41:53;98667.97;;;14.93;61.80
26699;BME280;14313;50.892;13.756;2022-08-07T04:44:19;98668.16;;;14.92;62.32
26699;BME280;14313;50.892;13.756;2022-08-07T04:49:29;98676.03;;;15.02;61.74
26699;BME280;14313;50.892;13.756;2022-08-07T04:52:20;98670.34;;;14.97;61.26
26699;BME280;14313;50.892;13.756;2022-08-07T04:54:56;98678.91;;;15.16;62.55
26699;BME280;14313;50.892;13.756;2022-08-07T04:57:33;98671.94;;;15.15;62.02
26699;BME280;14313;50.892;13.756;2022-08-07T05:00:08;98671.94;;;15.15;61.92
26699;BME280;14313;50.892;13.756;2022-08-07T05:08:19;98674.50;;;15.67;62.24
26699;BME280;14313;50.892;13.756;2022-08-07T05:10:48;98670.63;;;15.95;62.81
26699;BME280;14313;50.892;13.756;2022-08-07T05:13:30;98677.28;;;16.07;60.85
26699;BME280;14313;50.892;13.756;2022-08-07T05:16:04;98677.94;;;16.17;60.18
26699;BME280;14313;50.892;13.756;2022-08-07T05:18:34;98673.47;;;16.26;60.60
26699;BME280;14313;50.892;13.756;2022-08-07T05:21:04;98683.63;;;16.47;59.70
26699;BME280;14313;50.892;13.756;2022-08-07T05:23:39;98684.50;;;16.63;59.57
26699;BME280;14313;50.892;13.756;2022-08-07T05:26:11;98678.00;;;16.74;59.74
26699;BME280;14313;50.892;13.756;2022-08-07T05:28:38;98679.13;;;16.88;59.84
26699;BME280;14313;50.892;13.756;2022-08-07T05:31:05;98682.44;;;16.98;59.65
26699;BME280;14313;50.892;13.756;2022-08-07T05:33:33;98676.72;;;17.25;58.77
26699;BME280;14313;50.892;13.756;2022-08-07T05:36:02;98681.00;;;17.42;59.71
26699;BME280;14313;50.892;13.756;2022-08-07T05:38:29;98679.28;;;17.58;59.38
26699;BME280;14313;50.892;13.756;2022-08-07T05:40:55;98687.94;;;17.68;58.74
26699;BME280;14313;50.892;13.756;2022-08-07T05:43:22;98688.03;;;17.82;57.75
26699;BME280;14313;50.892;13.756;2022-08-07T05:45:48;98685.50;;;17.89;57.52
26699;BME280;14313;50.892;13.756;2022-08-07T05:48:18;98689.53;;;18.08;58.40
26699;BME280;14313;50.892;13.756;2022-08-07T05:50:45;98689.19;;;18.33;58.61
26699;BME280;14313;50.892;13.756;2022-08-07T05:53:14;98690.09;;;18.49;58.52
26699;BME280;14313;50.892;13.756;2022-08-07T05:55:40;98697.91;;;18.73;57.41
26699;BME280;14313;50.892;13.756;2022-08-07T05:58:06;98696.50;;;19.00;57.13
26699;BME280;14313;50.892;13.756;2022-08-07T06:00:35;98691.72;;;19.10;57.09
26699;BME280;14313;50.892;13.756;2022-08-07T06:03:05;98692.13;;;19.22;55.59
26699;BME280;14313;50.892;13.756;2022-08-07T06:05:33;98685.03;;;19.43;55.78
26699;BME280;14313;50.892;13.756;2022-08-07T06:08:03;98688.00;;;19.63;55.20
26699;BME280;14313;50.892;13.756;2022-08-07T06:10:30;98684.91;;;19.81;53.63
26699;BME280;14313;50.892;13.756;2022-08-07T06:12:56;98679.72;;;19.94;52.45
26699;BME280;14313;50.892;13.756;2022-08-07T06:15:24;98688.53;;;20.09;52.52
26699;BME280;14313;50.892;13.756;2022-08-07T06:17:51;98679.03;;;20.28;52.92
26699;BME280;14313;50.892;13.756;2022-08-07T06:20:17;98677.22;;;20.50;51.86
26699;BME280;14313;50.892;13.756;2022-08-07T06:22:43;98681.56;;;20.72;51.53
26699;BME280;14313;50.892;13.756;2022-08-07T06:25:20;98688.03;;;20.84;50.04
26699;BME280;14313;50.892;13.756;2022-08-07T06:27:45;98685.72;;;21.02;49.62
26699;BME280;14313;50.892;13.756;2022-08-07T06:30:11;98679.03;;;21.19;48.98
26699;BME280;14313;50.892;13.756;2022-08-07T06:32:37;98683.44;;;21.27;47.46
26699;BME280;14313;50.892;13.756;2022-08-07T06:35:02;98680.16;;;21.32;47.74
26699;BME280;14313;50.892;13.756;2022-08-07T06:37:28;98674.59;;;21.40;47.40
26699;BME280;14313;50.892;13.756;2022-08-07T06:39:55;98677.56;;;21.51;46.97
26699;BME280;14313;50.892;13.756;2022-08-07T06:42:26;98671.59;;;21.49;46.89
26699;BME280;14313;50.892;13.756;2022-08-07T06:45:10;98674.50;;;21.54;47.01
26699;BME280;14313;50.892;13.756;2022-08-07T06:47:38;98673.25;;;21.57;46.23
26699;BME280;14313;50.892;13.756;2022-08-07T06:50:04;98675.66;;;21.86;45.98
26699;BME280;14313;50.892;13.756;2022-08-07T06:52:37;98681.78;;;22.15;44.94
26699;BME280;14313;50.892;13.756;2022-08-07T06:55:17;98679.97;;;22.35;44.46
26699;BME280;14313;50.892;13.756;2022-08-07T06:57:44;98670.03;;;22.48;43.93
26699;BME280;14313;50.892;13.756;2022-08-07T07:00:13;98677.72;;;22.65;43.12
26699;BME280;14313;50.892;13.756;2022-08-07T07:02:40;98670.28;;;22.67;42.49
26699;BME280;14313;50.892;13.756;2022-08-07T07:05:06;98678.38;;;22.80;41.95
26699;BME280;14313;50.892;13.756;2022-08-07T07:07:32;98674.84;;;22.99;42.23
26699;BME280;14313;50.892;13.756;2022-08-07T07:09:58;98671.72;;;23.15;41.38
26699;BME280;14313;50.892;13.756;2022-08-07T07:12:36;98666.31;;;23.22;41.40
26699;BME280;14313;50.892;13.756;2022-08-07T07:15:06;98663.63;;;23.22;40.66
26699;BME280;14313;50.892;13.756;2022-08-07T07:20:10;98657.66;;;23.07;40.84
26699;BME280;14313;50.892;13.756;2022-08-07T07:22:37;98652.00;;;23.34;40.40
26699;BME280;14313;50.892;13.756;2022-08-07T07:25:05;98659.00;;;23.55;39.94
26699;BME280;14313;50.892;13.756;2022-08-07T07:27:34;98662.13;;;23.52;39.88
26699;BME280;14313;50.892;13.756;2022-08-07T07:30:03;98659.84;;;23.56;39.96
26699;BME280;14313;50.892;13.756;2022-08-07T07:32:30;98649.81;;;23.76;39.07
26699;BME280;14313;50.892;13.756;2022-08-07T07:34:58;98643.84;;;23.67;38.72
26699;BME280;14313;50.892;13.756;2022-08-07T07:37:24;98647.94;;;23.76;38.96
26699;BME280;14313;50.892;13.756;2022-08-07T07:39:53;98646.75;;;24.10;38.00
26699;BME280;14313;50.892;13.756;2022-08-07T07:42:21;98645.84;;;24.16;38.09
26699;BME280;14313;50.892;13.756;2022-08-07T07:44:47;98639.81;;;24.28;39.51
26699;BME280;14313;50.892;13.756;2022-08-07T07:47:14;98640.69;;;24.15;38.45
26699;BME280;14313;50.892;13.756;2022-08-07T07:49:42;98648.56;;;24.23;37.69
26699;BME280;14313;50.892;13.756;2022-08-07T07:52:09;98644.50;;;24.39;37.04
26699;BME280;14313;50.892;13.756;2022-08-07T07:54:37;98640.72;;;24.46;37.70
26699;BME280;14313;50.892;13.756;2022-08-07T07:57:04;98638.63;;;24.73;36.93
26699;BME280;14313;50.892;13.756;2022-08-07T07:59:31;98644.34;;;24.83;36.82
26699;BME280;14313;50.892;13.756;2022-08-07T08:02:01;98641.13;;;24.75;36.04
26699;BME280;14313;50.892;13.756;2022-08-07T08:04:29;98643.03;;;24.43;35.86
26699;BME280;14313;50.892;13.756;2022-08-07T08:06:56;98642.16;;;24.74;36.18
26699;BME280;14313;50.892;13.756;2022-08-07T08:09:24;98650.03;;;24.75;35.84
26699;BME280;14313;50.892;13.756;2022-08-07T08:11:51;98651.75;;;24.94;36.02
26699;BME280;14313;50.892;13.756;2022-08-07T08:14:17;98645.69;;;24.74;36.13
26699;BME280;14313;50.892;13.756;2022-08-07T08:16:44;98646.97;;;24.96;34.84
26699;BME280;14313;50.892;13.756;2022-08-07T08:19:13;98645.09;;;24.97;35.00
26699;BME280;14313;50.892;13.756;2022-08-07T08:21:41;98645.63;;;25.05;34.75
26699;BME280;14313;50.892;13.756;2022-08-07T08:24:28;98641.78;;;25.38;34.69
26699;BME280;14313;50.892;13.756;2022-08-07T08:27:14;98643.19;;;25.40;34.43
26699;BME280;14313;50.892;13.756;2022-08-07T08:29:49;98647.34;;;25.61;34.85
26699;BME280;14313;50.892;13.756;2022-08-07T08:32:19;98642.81;;;25.37;33.74
26699;BME280;14313;50.892;13.756;2022-08-07T08:34:47;98646.34;;;25.56;33.52
26699;BME280;14313;50.892;13.756;2022-08-07T08:37:15;98648.00;;;25.38;33.72
26699;BME280;14313;50.892;13.756;2022-08-07T08:39:42;98647.25;;;25.68;32.80
26699;BME280;14313;50.892;13.756;2022-08-07T08:45:18;98644.53;;;25.49;33.08
26699;BME280;14313;50.892;13.756;2022-08-07T08:48:04;98644.09;;;25.53;33.56
26699;BME280;14313;50.892;13.756;2022-08-07T08:50:37;98641.25;;;25.66;34.19
26699;BME280;14313;50.892;13.756;2022-08-07T08:55:51;98637.34;;;25.80;33.77
26699;BME280;14313;50.892;13.756;2022-08-07T08:58:28;98632.94;;;25.97;33.40
26699;BME280;14313;50.892;13.756;2022-08-07T09:01:07;98634.53;;;26.16;34.50
26699;BME280;14313;50.892;13.756;2022-08-07T09:06:09;98638.19;;;26.40;32.91
26699;BME280;14313;50.892;13.756;2022-08-07T09:08:40;98624.50;;;26.23;32.65
26699;BME280;14313;50.892;13.756;2022-08-07T09:11:33;98621.50;;;26.55;32.95
26699;BME280;14313;50.892;13.756;2022-08-07T09:20:25;98628.59;;;26.67;32.07
26699;BME280;14313;50.892;13.756;2022-08-07T09:22:56;98622.09;;;26.68;32.67
26699;BME280;14313;50.892;13.756;2022-08-07T09:25:36;98624.19;;;26.43;32.75
26699;BME280;14313;50.892;13.756;2022-08-07T09:28:09;98617.97;;;26.54;31.81
26699;BME280;14313;50.892;13.756;2022-08-07T09:35:59;98601.75;;;26.66;32.17
26699;BME280;14313;50.892;13.756;2022-08-07T09:38:53;98596.25;;;26.96;32.89
26699;BME280;14313;50.892;13.756;2022-08-07T09:52:29;98584.69;;;29.20;30.35
26699;BME280;14313;50.892;13.756;2022-08-07T09:57:40;98576.31;;;30.14;27.32
26699;BME280;14313;50.892;13.756;2022-08-07T10:00:13;98574.66;;;30.72;27.55
26699;BME280;14313;50.892;13.756;2022-08-07T10:23:33;98531.91;;;32.12;26.22
26699;BME280;14313;50.892;13.756;2022-08-07T10:26:26;98536.50;;;33.03;25.64
26699;BME280;14313;50.892;13.756;2022-08-07T10:29:10;98527.16;;;33.24;26.31
26699;BME280;14313;50.892;13.756;2022-08-07T10:34:48;98523.19;;;34.38;23.97
26699;BME280;14313;50.892;13.756;2022-08-07T10:40:21;98517.16;;;33.53;26.65
26699;BME280;14313;50.892;13.756;2022-08-07T10:43:23;98517.50;;;33.41;25.27
26699;BME280;14313;50.892;13.756;2022-08-07T10:45:55;98521.88;;;33.42;25.21
26699;BME280;14313;50.892;13.756;2022-08-07T10:48:48;98516.44;;;33.87;24.30
26699;BME280;14313;50.892;13.756;2022-08-07T10:51:21;98506.47;;;33.57;24.18
26699;BME280;14313;50.892;13.756;2022-08-07T10:54:18;98511.22;;;34.29;25.33
26699;BME280;14313;50.892;13.756;2022-08-07T10:59:57;98492.53;;;35.60;23.00
26699;BME280;14313;50.892;13.756;2022-08-07T11:02:42;98508.34;;;34.44;24.27
26699;BME280;14313;50.892;13.756;2022-08-07T11:08:28;98500.78;;;32.69;24.84
26699;BME280;14313;50.892;13.756;2022-08-07T11:11:07;98492.41;;;33.24;24.60
26699;BME280;14313;50.892;13.756;2022-08-07T11:16:28;98475.88;;;32.85;25.66
26699;BME280;14313;50.892;13.756;2022-08-07T11:19:10;98472.03;;;32.96;25.29
26699;BME280;14313;50.892;13.756;2022-08-07T11:21:43;98480.22;;;33.56;25.06
26699;BME280;14313;50.892;13.756;2022-08-07T11:27:01;98475.22;;;34.07;24.81
26699;BME280;14313;50.892;13.756;2022-08-07T11:32:10;98462.91;;;33.65;24.54
26699;BME280;14313;50.892;13.756;2022-08-07T11:34:52;98467.38;;;33.56;26.73
26699;BME280;14313;50.892;13.756;2022-08-07T11:37:49;98467.38;;;34.00;24.14
26699;BME280;14313;50.892;13.756;2022-08-07T11:40:50;98453.88;;;33.16;26.06
26699;BME280;14313;50.892;13.756;2022-08-07T11:43:44;98450.69;;;34.31;25.15
26699;BME280;14313;50.892;13.756;2022-08-07T11:55:03;98444.38;;;36.51;22.07
26699;BME280;14313;50.892;13.756;2022-08-07T11:57:41;98443.81;;;36.68;22.86
26699;BME280;14313;50.892;13.756;2022-08-07T12:00:14;98437.59;;;36.90;23.13
26699;BME280;14313;50.892;13.756;2022-08-07T12:05:54;98425.00;;;36.29;22.39
26699;BME280;14313;50.892;13.756;2022-08-07T12:08:27;98422.72;;;36.63;21.74
26699;BME280;14313;50.892;13.756;2022-08-07T12:11:12;98425.94;;;36.38;22.96
26699;BME280;14313;50.892;13.756;2022-08-07T12:13:51;98418.91;;;37.41;23.05
26699;BME280;14313;50.892;13.756;2022-08-07T12:16:26;98418.28;;;38.03;22.36
26699;BME280;14313;50.892;13.756;2022-08-07T12:24:33;98419.28;;;38.37;22.08
26699;BME280;14313;50.892;13.756;2022-08-07T12:27:14;98422.78;;;38.21;21.72
26699;BME280;14313;50.892;13.756;2022-08-07T12:29:58;98414.25;;;39.10;20.38
26699;BME280;14313;50.892;13.756;2022-08-07T12:32:35;98410.00;;;38.95;21.34
26699;BME280;14313;50.892;13.756;2022-08-07T12:35:03;98400.09;;;38.46;22.04
26699;BME280;14313;50.892;13.756;2022-08-07T12:37:32;98405.00;;;39.14;19.84
26699;BME280;14313;50.892;13.756;2022-08-07T12:40:00;98388.66;;;39.35;20.89
26699;BME280;14313;50.892;13.756;2022-08-07T12:42:27;98393.00;;;39.02;20.62
26699;BME280;14313;50.892;13.756;2022-08-07T12:45:04;98393.72;;;39.59;19.79
26699;BME280;14313;50.892;13.756;2022-08-07T12:47:54;98395.81;;;39.88;20.06
26699;BME280;14313;50.892;13.756;2022-08-07T12:50:23;98400.38;;;39.84;19.82
26699;BME280;14313;50.892;13.756;2022-08-07T12:53:10;98384.75;;;39.19;20.69
26699;BME280;14313;50.892;13.756;2022-08-07T12:55:50;98391.09;;;39.28;20.06
26699;BME280;14313;50.892;13.756;2022-08-07T12:58:20;98400.09;;;38.46;21.06
26699;BME280;14313;50.892;13.756;2022-08-07T13:03:20;98382.84;;;39.54;20.49
26699;BME280;14313;50.892;13.756;2022-08-07T13:05:57;98382.03;;;39.45;19.93
26699;BME280;14313;50.892;13.756;2022-08-07T13:12:02;98382.28;;;39.00;20.94
26699;BME280;14313;50.892;13.756;2022-08-07T13:17:40;98375.09;;;37.89;20.34
26699;BME280;14313;50.892;13.756;2022-08-07T13:22:37;98366.06;;;38.51;20.68
26699;BME280;14313;50.892;13.756;2022-08-07T13:25:09;98369.31;;;39.18;20.22
26699;BME280;14313;50.892;13.756;2022-08-07T13:27:48;98361.41;;;39.85;19.64
26699;BME280;14313;50.892;13.756;2022-08-07T13:30:15;98356.34;;;39.87;20.17
26699;BME280;14313;50.892;13.756;2022-08-07T13:32:49;98353.59;;;39.53;20.39
26699;BME280;14313;50.892;13.756;2022-08-07T13:35:38;98356.00;;;39.89;20.20
26699;BME280;14313;50.892;13.756;2022-08-07T13:41:11;98358.16;;;41.06;19.78
26699;BME280;14313;50.892;13.756;2022-08-07T13:43:45;98337.13;;;39.99;19.51
26699;BME280;14313;50.892;13.756;2022-08-07T13:46:15;98335.25;;;41.38;19.41
26699;BME280;14313;50.892;13.756;2022-08-07T13:48:45;98339.00;;;41.96;18.30
26699;BME280;14313;50.892;13.756;2022-08-07T13:51:13;98341.09;;;42.23;18.14
26699;BME280;14313;50.892;13.756;2022-08-07T13:53:41;98328.09;;;42.36;18.20
26699;BME280;14313;50.892;13.756;2022-08-07T13:56:16;98336.72;;;42.22;18.96
26699;BME280;14313;50.892;13.756;2022-08-07T13:58:43;98334.25;;;41.63;19.45
26699;BME280;14313;50.892;13.756;2022-08-07T14:01:41;98336.19;;;40.42;18.84
26699;BME280;14313;50.892;13.756;2022-08-07T14:04:10;98321.03;;;41.48;18.62
26699;BME280;14313;50.892;13.756;2022-08-07T14:06:38;98319.94;;;40.40;19.75
26699;BME280;14313;50.892;13.756;2022-08-07T14:09:06;98328.50;;;40.10;19.42
26699;BME280;14313;50.892;13.756;2022-08-07T14:11:42;98326.97;;;40.67;19.86
26699;BME280;14313;50.892;13.756;2022-08-07T14:14:10;98323.09;;;41.51;18.49
26699;BME280;14313;50.892;13.756;2022-08-07T14:16:41;98323.81;;;41.48;18.37
26699;BME280;14313;50.892;13.756;2022-08-07T14:19:21;98324.41;;;41.54;18.84
26699;BME280;14313;50.892;13.756;2022-08-07T14:21:53;98319.38;;;41.68;18.26
26699;BME280;14313;50.892;13.756;2022-08-07T14:24:36;98312.13;;;42.93;18.85
26699;BME280;14313;50.892;13.756;2022-08-07T14:27:04;98308.34;;;43.26;18.31
26699;BME280;14313;50.892;13.756;2022-08-07T14:29:35;98317.75;;;42.12;19.13
26699;BME280;14313;50.892;13.756;2022-08-07T14:32:04;98324.84;;;40.94;18.81
26699;BME280;14313;50.892;13.756;2022-08-07T14:34:31;98317.13;;;41.08;19.49
26699;BME280;14313;50.892;13.756;2022-08-07T14:36:59;98314.19;;;40.83;19.61
26699;BME280;14313;50.892;13.756;2022-08-07T14:39:26;98311.78;;;41.23;18.91
26699;BME280;14313;50.892;13.756;2022-08-07T14:41:52;98319.25;;;41.64;18.71
26699;BME280;14313;50.892;13.756;2022-08-07T14:44:18;98307.69;;;40.79;18.77
26699;BME280;14313;50.892;13.756;2022-08-07T14:46:45;98313.47;;;41.90;18.50
26699;BME280;14313;50.892;13.756;2022-08-07T14:49:11;98311.03;;;41.89;19.49
26699;BME280;14313;50.892;13.756;2022-08-07T14:51:41;98305.69;;;42.29;17.84
26699;BME280;14313;50.892;13.756;2022-08-07T14:54:08;98308.88;;;42.06;18.50
26699;BME280;14313;50.892;13.756;2022-08-07T14:56:38;98304.28;;;41.45;18.64
26699;BME280;14313;50.892;13.756;2022-08-07T14:59:06;98310.03;;;41.40;18.79
26699;BME280;14313;50.892;13.756;2022-08-07T15:01:35;98305.16;;;40.36;18.84
26699;BME280;14313;50.892;13.756;2022-08-07T15:04:02;98307.69;;;41.09;19.18
26699;BME280;14313;50.892;13.756;2022-08-07T15:06:31;98307.31;;;41.52;18.83